DLH7AH EDDV-LOWL
Flight info
| Callsign | DLH7AH |
|---|---|
| Flight time | 0h 56m |
| Altitude | 35000 |
| Route | POVEL4S POVEL Z94 GALMA T703 DEXIT DEXIT2K |
| Aircraft | A320/M-SDE3FGHIRWY/LB1 |
Departure
| Time | 2026-04-26 06:07 |
|---|---|
| Airport | Hannover Airport (EDDV) |
Arrival
| Time | 2026-04-26 07:04 |
|---|---|
| Airport | Linz-Hörsching Airport (LOWL) |
| Time | Latitude | Longitude | Altitude | Speed | Heading |
|---|---|---|---|---|---|
| 2026-04-26 06:04 | 52.45603 | 9.69812 | 191 ft | 9 kts | 92° |
| 2026-04-26 06:04 | 52.45599 | 9.69941 | 195 ft | 14 kts | 92° |
| 2026-04-26 06:04 | 52.45595 | 9.70097 | 191 ft | 15 kts | 92° |
| 2026-04-26 06:05 | 52.45590 | 9.70279 | 191 ft | 22 kts | 92° |
| 2026-04-26 06:05 | 52.45581 | 9.70605 | 191 ft | 31 kts | 92° |
| 2026-04-26 06:05 | 52.45571 | 9.70951 | 191 ft | 22 kts | 92° |
| 2026-04-26 06:05 | 52.45481 | 9.71103 | 191 ft | 13 kts | 183° |
| 2026-04-26 06:06 | 52.45421 | 9.71097 | 191 ft | 8 kts | 184° |
| 2026-04-26 06:06 | 52.45405 | 9.71050 | 192 ft | 4 kts | 266° |
| 2026-04-26 06:06 | 52.45405 | 9.71038 | 192 ft | 0 kts | 275° |
| 2026-04-26 06:06 | 52.45405 | 9.71035 | 192 ft | 3 kts | 275° |
| 2026-04-26 06:07 | 52.45415 | 9.70702 | 193 ft | 68 kts | 272° |
| 2026-04-26 06:07 | 52.45447 | 9.69537 | 190 ft | 134 kts | 272° |
| 2026-04-26 06:07 | 52.45497 | 9.67825 | 572 ft | 155 kts | 272° |
| 2026-04-26 06:07 | 52.45535 | 9.66033 | 1346 ft | 159 kts | 274° |
| 2026-04-26 06:08 | 52.45565 | 9.64151 | 1890 ft | 175 kts | 275° |
| 2026-04-26 06:08 | 52.45620 | 9.62021 | 2285 ft | 199 kts | 275° |
| 2026-04-26 06:08 | 52.45688 | 9.59646 | 2815 ft | 216 kts | 275° |
| 2026-04-26 06:08 | 52.45754 | 9.57174 | 3708 ft | 219 kts | 274° |
| 2026-04-26 06:09 | 52.45655 | 9.54670 | 4550 ft | 225 kts | 252° |
| 2026-04-26 06:09 | 52.44725 | 9.52606 | 5393 ft | 233 kts | 216° |
| 2026-04-26 06:09 | 52.43326 | 9.51223 | 6240 ft | 237 kts | 212° |
| 2026-04-26 06:09 | 52.41879 | 9.49863 | 7030 ft | 242 kts | 213° |
| 2026-04-26 06:10 | 52.40404 | 9.48484 | 7819 ft | 246 kts | 214° |
| 2026-04-26 06:10 | 52.38888 | 9.47139 | 8622 ft | 252 kts | 205° |
| 2026-04-26 06:10 | 52.37129 | 9.46691 | 9398 ft | 264 kts | 175° |
| 2026-04-26 06:10 | 52.35372 | 9.47670 | 10096 ft | 277 kts | 146° |
| 2026-04-26 06:11 | 52.34063 | 9.50063 | 10444 ft | 294 kts | 111° |
| 2026-04-26 06:11 | 52.33291 | 9.53286 | 10776 ft | 316 kts | 106° |
| 2026-04-26 06:11 | 52.32505 | 9.56785 | 11109 ft | 340 kts | 107° |
| 2026-04-26 06:11 | 52.31666 | 9.60488 | 11655 ft | 353 kts | 107° |
| 2026-04-26 06:12 | 52.30790 | 9.64282 | 12415 ft | 359 kts | 107° |
| 2026-04-26 06:12 | 52.29894 | 9.68121 | 13207 ft | 364 kts | 108° |
| 2026-04-26 06:12 | 52.28979 | 9.72004 | 13996 ft | 368 kts | 108° |
| 2026-04-26 06:12 | 52.28047 | 9.75933 | 14695 ft | 373 kts | 108° |
| 2026-04-26 06:13 | 52.27102 | 9.79904 | 15393 ft | 377 kts | 108° |
| 2026-04-26 06:13 | 52.26011 | 9.83835 | 16067 ft | 383 kts | 113° |
| 2026-04-26 06:13 | 52.24820 | 9.87742 | 16754 ft | 387 kts | 114° |
| 2026-04-26 06:13 | 52.23573 | 9.91669 | 17420 ft | 391 kts | 115° |
| 2026-04-26 06:14 | 52.22297 | 9.95613 | 18099 ft | 396 kts | 115° |
| 2026-04-26 06:14 | 52.21005 | 9.99597 | 18734 ft | 400 kts | 115° |
| 2026-04-26 06:14 | 52.19705 | 10.03628 | 19315 ft | 403 kts | 115° |
| 2026-04-26 06:14 | 52.18401 | 10.07695 | 19894 ft | 407 kts | 115° |
| 2026-04-26 06:15 | 52.17089 | 10.11803 | 20485 ft | 410 kts | 115° |
| 2026-04-26 06:15 | 52.15769 | 10.15946 | 21073 ft | 414 kts | 115° |
| 2026-04-26 06:15 | 52.14436 | 10.20128 | 21673 ft | 418 kts | 115° |
| 2026-04-26 06:15 | 52.13073 | 10.24397 | 22250 ft | 421 kts | 116° |
| 2026-04-26 06:16 | 52.11717 | 10.28644 | 22829 ft | 425 kts | 116° |
| 2026-04-26 06:16 | 52.10346 | 10.32932 | 23412 ft | 429 kts | 116° |
| 2026-04-26 06:16 | 52.08960 | 10.37245 | 23953 ft | 433 kts | 116° |
| 2026-04-26 06:16 | 52.07551 | 10.41600 | 24424 ft | 436 kts | 116° |
| 2026-04-26 06:17 | 52.06128 | 10.45984 | 24901 ft | 438 kts | 116° |
| 2026-04-26 06:17 | 52.04708 | 10.50361 | 25358 ft | 441 kts | 116° |
| 2026-04-26 06:17 | 52.03275 | 10.54783 | 25821 ft | 443 kts | 116° |
| 2026-04-26 06:17 | 52.01839 | 10.59216 | 26273 ft | 445 kts | 116° |
| 2026-04-26 06:18 | 52.00388 | 10.63682 | 26712 ft | 448 kts | 116° |
| 2026-04-26 06:18 | 51.98929 | 10.68159 | 27135 ft | 450 kts | 116° |
| 2026-04-26 06:18 | 51.97464 | 10.72653 | 27550 ft | 452 kts | 117° |
| 2026-04-26 06:18 | 51.95985 | 10.77175 | 27968 ft | 455 kts | 117° |
| 2026-04-26 06:19 | 51.94496 | 10.81716 | 28381 ft | 457 kts | 117° |
| 2026-04-26 06:19 | 51.93502 | 10.84744 | 28647 ft | 459 kts | 117° |
| 2026-04-26 06:19 | 51.91999 | 10.89316 | 29040 ft | 461 kts | 117° |
| 2026-04-26 06:19 | 51.90485 | 10.93913 | 29428 ft | 463 kts | 117° |
| 2026-04-26 06:20 | 51.88914 | 10.98475 | 29803 ft | 466 kts | 122° |
| 2026-04-26 06:20 | 51.86962 | 11.02686 | 30160 ft | 469 kts | 131° |
| 2026-04-26 06:20 | 51.84612 | 11.06356 | 30492 ft | 471 kts | 141° |
| 2026-04-26 06:20 | 51.80952 | 11.10274 | 30883 ft | 473 kts | 153° |
| 2026-04-26 06:21 | 51.79019 | 11.11919 | 31076 ft | 474 kts | 153° |
| 2026-04-26 06:21 | 51.76099 | 11.14407 | 31363 ft | 476 kts | 153° |
| 2026-04-26 06:21 | 51.73165 | 11.16910 | 31642 ft | 477 kts | 153° |
| 2026-04-26 06:21 | 51.70224 | 11.19419 | 31911 ft | 479 kts | 153° |
| 2026-04-26 06:22 | 51.67278 | 11.21923 | 32257 ft | 478 kts | 153° |
| 2026-04-26 06:22 | 51.64335 | 11.24420 | 32653 ft | 477 kts | 153° |
| 2026-04-26 06:22 | 51.61406 | 11.26904 | 33044 ft | 475 kts | 153° |
| 2026-04-26 06:22 | 51.58482 | 11.29382 | 33432 ft | 474 kts | 153° |
| 2026-04-26 06:23 | 51.55565 | 11.31850 | 33825 ft | 473 kts | 153° |
| 2026-04-26 06:23 | 51.52654 | 11.34307 | 34223 ft | 471 kts | 153° |
| 2026-04-26 06:23 | 51.49754 | 11.36752 | 34570 ft | 470 kts | 153° |
| 2026-04-26 06:23 | 51.46865 | 11.39184 | 34923 ft | 468 kts | 154° |
| 2026-04-26 06:24 | 51.43978 | 11.41608 | 35197 ft | 468 kts | 154° |
| 2026-04-26 06:24 | 51.38269 | 11.46396 | 35272 ft | 458 kts | 154° |
| 2026-04-26 06:25 | 51.32646 | 11.51097 | 35272 ft | 455 kts | 154° |
| 2026-04-26 06:25 | 51.27033 | 11.55756 | 35277 ft | 455 kts | 154° |
| 2026-04-26 06:26 | 51.21419 | 11.60391 | 35269 ft | 454 kts | 154° |
| 2026-04-26 06:26 | 51.15764 | 11.65030 | 35268 ft | 453 kts | 157° |
| 2026-04-26 06:27 | 51.09775 | 11.67878 | 35265 ft | 448 kts | 175° |
| 2026-04-26 06:27 | 51.03580 | 11.68365 | 35268 ft | 445 kts | 181° |
| 2026-04-26 06:28 | 50.97384 | 11.68682 | 35270 ft | 445 kts | 180° |
| 2026-04-26 06:28 | 50.91189 | 11.69034 | 35274 ft | 445 kts | 180° |
| 2026-04-26 06:29 | 50.84998 | 11.69395 | 35274 ft | 445 kts | 180° |
| 2026-04-26 06:29 | 50.78814 | 11.69731 | 35271 ft | 444 kts | 180° |
| 2026-04-26 06:30 | 50.72641 | 11.70101 | 35273 ft | 445 kts | 177° |
| 2026-04-26 06:30 | 50.66602 | 11.72310 | 35272 ft | 448 kts | 163° |
| 2026-04-26 06:31 | 50.60689 | 11.75388 | 35271 ft | 447 kts | 163° |
| 2026-04-26 06:31 | 50.54778 | 11.78456 | 35272 ft | 447 kts | 163° |
| 2026-04-26 06:32 | 50.48865 | 11.81496 | 35271 ft | 447 kts | 163° |
| 2026-04-26 06:32 | 50.43063 | 11.85032 | 35276 ft | 448 kts | 158° |
| 2026-04-26 06:33 | 50.37344 | 11.88911 | 35274 ft | 448 kts | 158° |
| 2026-04-26 06:33 | 50.31618 | 11.92784 | 35271 ft | 448 kts | 158° |
| 2026-04-26 06:34 | 50.25888 | 11.96634 | 35270 ft | 448 kts | 158° |
| 2026-04-26 06:34 | 50.20158 | 12.00478 | 35265 ft | 448 kts | 158° |
| 2026-04-26 06:35 | 50.14426 | 12.04330 | 35258 ft | 448 kts | 158° |
| 2026-04-26 06:35 | 50.08695 | 12.08185 | 35251 ft | 448 kts | 158° |
| 2026-04-26 06:36 | 50.02971 | 12.12013 | 35242 ft | 448 kts | 158° |
| 2026-04-26 06:36 | 49.97227 | 12.15828 | 35232 ft | 448 kts | 158° |
| 2026-04-26 06:37 | 49.91501 | 12.19629 | 35231 ft | 448 kts | 158° |
| 2026-04-26 06:37 | 49.85768 | 12.23422 | 35233 ft | 448 kts | 158° |
| 2026-04-26 06:38 | 49.80029 | 12.27212 | 35235 ft | 448 kts | 159° |
| 2026-04-26 06:38 | 49.74294 | 12.30990 | 35240 ft | 448 kts | 157° |
| 2026-04-26 06:39 | 49.69019 | 12.36100 | 35240 ft | 449 kts | 143° |
| 2026-04-26 06:39 | 49.64049 | 12.41938 | 35236 ft | 449 kts | 144° |
| 2026-04-26 06:40 | 49.59068 | 12.47747 | 35233 ft | 448 kts | 144° |
| 2026-04-26 06:40 | 49.54053 | 12.53564 | 35234 ft | 448 kts | 144° |
| 2026-04-26 06:40 | 49.51562 | 12.56449 | 35099 ft | 447 kts | 144° |
| 2026-04-26 06:41 | 49.49076 | 12.59328 | 34469 ft | 447 kts | 144° |
| 2026-04-26 06:41 | 49.46604 | 12.62185 | 33912 ft | 443 kts | 144° |
| 2026-04-26 06:41 | 49.44179 | 12.64992 | 33357 ft | 440 kts | 142° |
| 2026-04-26 06:41 | 49.41873 | 12.68154 | 32803 ft | 437 kts | 136° |
| 2026-04-26 06:42 | 49.39674 | 12.71365 | 32263 ft | 435 kts | 136° |
| 2026-04-26 06:42 | 49.37488 | 12.74560 | 31738 ft | 432 kts | 136° |
| 2026-04-26 06:42 | 49.35464 | 12.77936 | 31228 ft | 429 kts | 129° |
| 2026-04-26 06:42 | 49.33566 | 12.81456 | 30726 ft | 427 kts | 129° |
| 2026-04-26 06:43 | 49.31680 | 12.84941 | 30231 ft | 424 kts | 129° |
| 2026-04-26 06:43 | 49.29792 | 12.88412 | 29673 ft | 422 kts | 129° |
| 2026-04-26 06:43 | 49.27919 | 12.91849 | 29138 ft | 419 kts | 129° |
| 2026-04-26 06:43 | 49.26054 | 12.95264 | 28620 ft | 417 kts | 129° |
| 2026-04-26 06:44 | 49.24199 | 12.98652 | 28128 ft | 414 kts | 129° |
| 2026-04-26 06:44 | 49.22355 | 13.02020 | 27640 ft | 412 kts | 129° |
| 2026-04-26 06:44 | 49.20462 | 13.05288 | 27156 ft | 410 kts | 134° |
| 2026-04-26 06:44 | 49.18444 | 13.08337 | 26671 ft | 408 kts | 134° |
| 2026-04-26 06:45 | 49.16424 | 13.11375 | 26199 ft | 405 kts | 134° |
| 2026-04-26 06:45 | 49.14413 | 13.14385 | 25731 ft | 403 kts | 134° |
| 2026-04-26 06:45 | 49.12415 | 13.17372 | 25262 ft | 401 kts | 134° |
| 2026-04-26 06:45 | 49.10426 | 13.20347 | 24794 ft | 399 kts | 134° |
| 2026-04-26 06:46 | 49.08451 | 13.23305 | 24332 ft | 397 kts | 134° |
| 2026-04-26 06:46 | 49.06477 | 13.26261 | 23873 ft | 396 kts | 134° |
| 2026-04-26 06:46 | 49.04519 | 13.29186 | 23361 ft | 394 kts | 134° |
| 2026-04-26 06:46 | 49.02563 | 13.32102 | 22864 ft | 392 kts | 134° |
| 2026-04-26 06:47 | 49.00617 | 13.34999 | 22388 ft | 389 kts | 134° |
| 2026-04-26 06:47 | 48.98687 | 13.37867 | 21955 ft | 387 kts | 134° |
| 2026-04-26 06:47 | 48.96762 | 13.40723 | 21505 ft | 384 kts | 134° |
| 2026-04-26 06:47 | 48.94853 | 13.43550 | 21049 ft | 382 kts | 134° |
| 2026-04-26 06:48 | 48.92953 | 13.46361 | 20607 ft | 380 kts | 134° |
| 2026-04-26 06:48 | 48.91059 | 13.49161 | 20185 ft | 378 kts | 134° |
| 2026-04-26 06:48 | 48.89180 | 13.51939 | 19768 ft | 376 kts | 134° |
| 2026-04-26 06:48 | 48.87306 | 13.54706 | 19363 ft | 374 kts | 134° |
| 2026-04-26 06:49 | 48.85446 | 13.57449 | 18971 ft | 373 kts | 134° |
| 2026-04-26 06:49 | 48.83586 | 13.60186 | 18583 ft | 371 kts | 134° |
| 2026-04-26 06:49 | 48.81736 | 13.62904 | 18158 ft | 369 kts | 134° |
| 2026-04-26 06:49 | 48.79892 | 13.65605 | 17742 ft | 367 kts | 134° |
| 2026-04-26 06:50 | 48.78061 | 13.68289 | 17323 ft | 365 kts | 134° |
| 2026-04-26 06:50 | 48.76240 | 13.70957 | 16931 ft | 363 kts | 134° |
| 2026-04-26 06:50 | 48.74397 | 13.73568 | 16526 ft | 362 kts | 136° |
| 2026-04-26 06:50 | 48.72535 | 13.76107 | 16149 ft | 360 kts | 137° |
| 2026-04-26 06:51 | 48.70660 | 13.78611 | 15787 ft | 358 kts | 137° |
| 2026-04-26 06:51 | 48.66936 | 13.83553 | 15077 ft | 354 kts | 137° |
| 2026-04-26 06:51 | 48.65065 | 13.86048 | 14304 ft | 365 kts | 137° |
| 2026-04-26 06:52 | 48.63145 | 13.88627 | 13645 ft | 372 kts | 138° |
| 2026-04-26 06:52 | 48.61215 | 13.91222 | 13151 ft | 370 kts | 138° |
| 2026-04-26 06:52 | 48.59472 | 13.93563 | 12732 ft | 368 kts | 138° |
| 2026-04-26 06:52 | 48.57567 | 13.96118 | 12133 ft | 363 kts | 139° |
| 2026-04-26 06:53 | 48.56291 | 13.97831 | 11708 ft | 361 kts | 139° |
| 2026-04-26 06:53 | 48.54424 | 14.00333 | 11097 ft | 358 kts | 139° |
| 2026-04-26 06:53 | 48.52573 | 14.02808 | 10815 ft | 350 kts | 139° |
| 2026-04-26 06:53 | 48.50784 | 14.05200 | 10690 ft | 338 kts | 139° |
| 2026-04-26 06:54 | 48.49055 | 14.07510 | 10575 ft | 327 kts | 140° |
| 2026-04-26 06:54 | 48.47369 | 14.09758 | 10336 ft | 321 kts | 140° |
| 2026-04-26 06:54 | 48.45701 | 14.11979 | 10018 ft | 319 kts | 140° |
| 2026-04-26 06:54 | 48.44045 | 14.14182 | 9655 ft | 316 kts | 140° |
| 2026-04-26 06:55 | 48.42404 | 14.16364 | 9285 ft | 314 kts | 140° |
| 2026-04-26 06:55 | 48.40881 | 14.18712 | 8937 ft | 312 kts | 130° |
| 2026-04-26 06:55 | 48.39489 | 14.21200 | 8560 ft | 310 kts | 131° |
| 2026-04-26 06:55 | 48.38098 | 14.23669 | 8203 ft | 308 kts | 131° |
| 2026-04-26 06:56 | 48.36720 | 14.26112 | 7846 ft | 305 kts | 131° |
| 2026-04-26 06:56 | 48.35385 | 14.28582 | 7483 ft | 303 kts | 127° |
| 2026-04-26 06:56 | 48.34169 | 14.31149 | 7085 ft | 300 kts | 125° |
| 2026-04-26 06:56 | 48.32985 | 14.33722 | 6680 ft | 299 kts | 125° |
| 2026-04-26 06:57 | 48.31808 | 14.36285 | 6308 ft | 297 kts | 125° |
| 2026-04-26 06:57 | 48.30679 | 14.38853 | 5927 ft | 293 kts | 119° |
| 2026-04-26 06:57 | 48.29756 | 14.41565 | 5575 ft | 290 kts | 115° |
| 2026-04-26 06:57 | 48.28886 | 14.44271 | 5312 ft | 284 kts | 115° |
| 2026-04-26 06:58 | 48.28042 | 14.46900 | 5044 ft | 277 kts | 115° |
| 2026-04-26 06:58 | 48.27183 | 14.49466 | 4744 ft | 273 kts | 123° |
| 2026-04-26 06:58 | 48.25868 | 14.51381 | 4611 ft | 258 kts | 153° |
| 2026-04-26 06:58 | 48.24205 | 14.51925 | 4477 ft | 240 kts | 192° |
| 2026-04-26 06:59 | 48.22814 | 14.50880 | 4334 ft | 218 kts | 234° |
| 2026-04-26 06:59 | 48.22321 | 14.48890 | 4201 ft | 200 kts | 277° |
| 2026-04-26 06:59 | 48.22821 | 14.47036 | 4110 ft | 189 kts | 302° |
| 2026-04-26 06:59 | 48.23438 | 14.45354 | 4035 ft | 182 kts | 299° |
| 2026-04-26 07:00 | 48.23867 | 14.43597 | 3953 ft | 180 kts | 283° |
| 2026-04-26 07:00 | 48.23998 | 14.41710 | 3764 ft | 180 kts | 275° |
| 2026-04-26 07:00 | 48.23998 | 14.39836 | 3543 ft | 180 kts | 271° |
| 2026-04-26 07:00 | 48.23955 | 14.37978 | 3306 ft | 180 kts | 270° |
| 2026-04-26 07:01 | 48.23899 | 14.36064 | 3054 ft | 182 kts | 270° |
| 2026-04-26 07:01 | 48.23839 | 14.34193 | 2822 ft | 174 kts | 270° |
| 2026-04-26 07:01 | 48.23781 | 14.32426 | 2586 ft | 167 kts | 270° |
| 2026-04-26 07:01 | 48.23725 | 14.30776 | 2383 ft | 149 kts | 270° |
| 2026-04-26 07:02 | 48.23676 | 14.29303 | 2182 ft | 135 kts | 269° |
| 2026-04-26 07:02 | 48.23630 | 14.27915 | 2002 ft | 131 kts | 268° |
| 2026-04-26 07:02 | 48.23589 | 14.26556 | 1824 ft | 130 kts | 269° |
| 2026-04-26 07:02 | 48.23548 | 14.25205 | 1650 ft | 129 kts | 268° |
| 2026-04-26 07:03 | 48.23499 | 14.23871 | 1461 ft | 128 kts | 269° |
| 2026-04-26 07:03 | 48.23452 | 14.22531 | 1271 ft | 128 kts | 269° |
| 2026-04-26 07:03 | 48.23408 | 14.21216 | 1100 ft | 126 kts | 268° |
| 2026-04-26 07:03 | 48.23360 | 14.19912 | 986 ft | 119 kts | 269° |
| 2026-04-26 07:04 | 48.23326 | 14.18860 | 978 ft | 78 kts | 267° |
| 2026-04-26 07:04 | 48.23306 | 14.18318 | 986 ft | 32 kts | 267° |
| 2026-04-26 07:04 | 48.23296 | 14.18004 | 984 ft | 27 kts | 266° |
| 2026-04-26 07:04 | 48.23359 | 14.17889 | 983 ft | 12 kts | 10° |
| 2026-04-26 07:05 | 48.23447 | 14.17924 | 981 ft | 14 kts | 15° |
| 2026-04-26 07:05 | 48.23547 | 14.17965 | 980 ft | 16 kts | 15° |
| 2026-04-26 07:05 | 48.23665 | 14.18011 | 982 ft | 19 kts | 18° |
| 2026-04-26 07:05 | 48.23720 | 14.18161 | 981 ft | 16 kts | 87° |
| 2026-04-26 07:06 | 48.23725 | 14.18325 | 988 ft | 15 kts | 86° |
| 2026-04-26 07:06 | 48.23731 | 14.18483 | 980 ft | 15 kts | 87° |
| 2026-04-26 07:06 | 48.23735 | 14.18636 | 979 ft | 14 kts | 88° |
| 2026-04-26 07:06 | 48.23741 | 14.18784 | 986 ft | 14 kts | 86° |
| 2026-04-26 07:07 | 48.23745 | 14.18926 | 977 ft | 13 kts | 88° |
| 2026-04-26 07:07 | 48.23751 | 14.19048 | 977 ft | 8 kts | 73° |
| 2026-04-26 07:07 | 48.23789 | 14.19084 | 984 ft | 6 kts | 37° |
| 2026-04-26 07:07 | 48.23800 | 14.19148 | 976 ft | 6 kts | 87° |
| 2026-04-26 07:08 | 48.23800 | 14.19151 | 981 ft | 0 kts | 88° |